Time;durP1;ratioP1;P1;durP2;ratioP2;P2;SDS_P1;SDS_P2;PMS_P1;PMS_P2;Temp;Humidity;BMP_temperature;BMP_pressure;BME280_temperature;BME280_humidity;BME280_pressure;Samples;Min_cycle;Max_cycle;Signal;HPM_P1;HPM_P2
2022/02/21 00:02:22;;;;;;;21.30;11.22;;;;;;;3.28;99.85;148489.50;1755806;79;21118;-60
2022/02/21 00:04:49;;;;;;;17.82;11.00;;;;;;;3.24;100.00;148480.45;1761822;79;21091;-59
2022/02/21 00:07:16;;;;;;;18.23;10.40;;;;;;;3.19;100.00;148467.56;1759764;79;21185;-59
2022/02/21 00:12:14;;;;;;;15.43;8.07;;;;;;;3.24;100.00;148479.19;1824772;76;22579;-61
2022/02/21 00:14:42;;;;;;;14.65;7.65;;;;;;;3.17;100.00;148461.09;1794507;79;21023;-61
2022/02/21 00:17:09;;;;;;;15.55;8.30;;;;;;;3.13;100.00;148453.36;1790330;78;21097;-59
2022/02/21 00:19:35;;;;;;;15.38;7.85;;;;;;;3.12;100.00;148449.52;1802229;78;21117;-60
2022/02/21 00:22:04;;;;;;;15.15;7.85;;;;;;;3.12;100.00;148450.78;1802921;78;21500;-60
2022/02/21 00:24:32;;;;;;;17.30;8.15;;;;;;;3.13;100.00;148453.36;1799509;78;21896;-60
2022/02/21 00:26:59;;;;;;;18.92;8.60;;;;;;;3.12;100.00;148450.78;1797896;78;21042;-60
2022/02/21 00:29:28;;;;;;;14.75;7.75;;;;;;;3.14;100.00;148455.94;1799386;78;21147;-61
2022/02/21 00:31:54;;;;;;;17.27;7.85;;;;;;;3.17;100.00;148461.09;1798810;78;20958;-62
2022/02/21 00:34:21;;;;;;;19.02;8.33;;;;;;;3.18;100.00;148464.98;1796864;78;20964;-61
2022/02/21 00:36:48;;;;;;;18.27;8.93;;;;;;;3.17;100.00;148461.09;1791482;77;21510;-59
2022/02/21 00:39:15;;;;;;;18.75;8.88;;;;;;;3.15;100.00;148458.52;1794974;78;21087;-61
2022/02/21 00:41:41;;;;;;;17.45;8.53;;;;;;;3.12;100.00;148450.78;1799290;78;21879;-59
2022/02/21 00:44:08;;;;;;;19.70;8.65;;;;;;;3.12;100.00;148450.78;1786381;78;21232;-61
2022/02/21 00:46:34;;;;;;;17.02;8.98;;;;;;;3.11;100.00;148448.20;1795739;79;21012;-59
2022/02/21 00:49:03;;;;;;;17.12;8.93;;;;;;;3.09;100.00;148443.05;1794479;78;21628;-61
2022/02/21 00:51:30;;;;;;;16.27;8.25;;;;;;;3.06;100.00;148434.00;1796486;78;20972;-59
2022/02/21 00:53:57;;;;;;;15.18;8.23;;;;;;;3.04;100.00;148428.84;1790049;78;21530;-61
2022/02/21 00:56:25;;;;;;;17.07;8.38;;;;;;;3.04;100.00;148430.16;1797440;78;21662;-61
2022/02/21 00:58:52;;;;;;;18.50;8.25;;;;;;;3.03;100.00;148427.58;1769226;79;21059;-59
2022/02/21 01:01:18;;;;;;;16.90;8.95;;;;;;;3.01;100.00;148422.42;1798146;78;21097;-60
2022/02/21 01:03:46;;;;;;;13.95;8.43;;;;;;;2.96;100.00;148410.80;1769801;79;21040;-61
2022/02/21 01:06:13;;;;;;;18.07;8.60;;;;;;;2.93;100.00;148403.06;1798884;78;21120;-60
2022/02/21 01:08:39;;;;;;;16.15;8.38;;;;;;;2.90;100.00;148394.02;1791935;78;20990;-59
2022/02/21 01:11:06;;;;;;;14.18;8.60;;;;;;;2.90;100.00;148395.33;1791297;79;21517;-60
2022/02/21 01:13:33;;;;;;;16.27;9.35;;;;;;;2.89;100.00;148391.44;1786556;78;21068;-60
2022/02/21 01:16:00;;;;;;;15.38;8.28;;;;;;;2.86;100.00;148386.28;1792210;79;21099;-61
2022/02/21 01:18:27;;;;;;;18.95;9.55;;;;;;;2.83;100.00;148378.55;1795182;79;21169;-59
2022/02/21 01:20:53;;;;;;;17.95;9.60;;;;;;;2.82;100.00;148375.97;1794733;78;21080;-59
2022/02/21 01:23:20;;;;;;;17.48;9.28;;;;;;;2.81;100.00;148372.08;1791007;79;21489;-59
2022/02/21 01:25:47;;;;;;;19.35;9.58;;;;;;;2.80;100.00;148370.81;1794527;78;21072;-61
2022/02/21 01:28:14;;;;;;;16.42;9.75;;;;;;;2.83;100.00;148377.23;1792551;79;21028;-60
2022/02/21 01:30:41;;;;;;;22.87;10.18;;;;;;;2.85;100.00;148383.70;1789742;78;21093;-60
2022/02/21 01:33:07;;;;;;;18.52;9.83;;;;;;;2.84;100.00;148381.12;1792256;78;22017;-60
2022/02/21 01:35:35;;;;;;;18.07;9.73;;;;;;;2.81;100.00;148373.41;1786528;79;21053;-60
2022/02/21 01:38:02;;;;;;;19.52;9.78;;;;;;;2.82;100.00;148375.97;1789692;79;21861;-61
2022/02/21 01:40:29;;;;;;;19.55;9.90;;;;;;;2.83;100.00;148378.55;1791621;79;21596;-61
2022/02/21 01:42:55;;;;;;;19.23;9.68;;;;;;;2.83;100.00;148378.55;1777066;79;21291;-60
2022/02/21 01:45:22;;;;;;;17.42;10.10;;;;;;;2.83;100.00;148377.23;1790510;79;21619;-60
2022/02/21 01:47:49;;;;;;;17.60;9.88;;;;;;;2.82;100.00;148375.97;1765117;79;21486;-59
2022/02/21 01:50:15;;;;;;;19.65;9.65;;;;;;;2.86;100.00;148384.97;1792074;78;21076;-61
2022/02/21 01:52:44;;;;;;;19.17;9.50;;;;;;;2.86;100.00;148386.28;1775508;78;21040;-61
2022/02/21 01:55:12;;;;;;;19.95;9.28;;;;;;;2.85;100.00;148383.70;1736809;79;21218;-61
2022/02/21 01:57:41;;;;;;;18.10;10.15;;;;;;;2.89;100.00;148391.44;1765029;80;20949;-62
2022/02/21 02:00:10;;;;;;;18.87;10.28;;;;;;;2.90;100.00;148395.33;1793203;78;21508;-61
2022/02/21 02:02:45;;;;;;;22.27;10.93;;;;;;;2.88;100.00;148390.17;1795215;79;21023;-62
2022/02/21 02:05:10;;;;;;;15.32;9.53;;;;;;;2.88;100.00;148390.17;1790859;79;21126;-61
2022/02/21 02:07:37;;;;;;;22.85;11.33;;;;;;;2.90;100.00;148394.02;1782945;78;21985;-62
2022/02/21 02:10:05;;;;;;;19.23;10.45;;;;;;;2.91;100.00;148397.91;1772413;78;21357;-62
2022/02/21 02:12:33;;;;;;;18.30;10.18;;;;;;;2.96;100.00;148409.48;1775068;78;21107;-60
2022/02/21 02:14:59;;;;;;;20.52;11.43;;;;;;;3.00;100.00;148419.84;1802918;78;21070;-61
2022/02/21 02:17:26;;;;;;;17.60;10.50;;;;;;;3.01;100.00;148422.42;1801117;78;21103;-60
2022/02/21 02:19:53;;;;;;;22.07;11.00;;;;;;;3.00;100.00;148421.11;1814370;77;21507;-61
2022/02/21 02:22:22;;;;;;;19.67;11.45;;;;;;;3.00;100.00;148421.11;1801321;77;21051;-60
2022/02/21 02:24:51;;;;;;;21.35;11.63;;;;;;;3.01;100.00;148422.42;1804926;77;20999;-61
2022/02/21 02:27:19;;;;;;;22.48;11.22;;;;;;;2.96;100.00;148409.48;1805760;77;21079;-61
2022/02/21 02:29:48;;;;;;;19.40;10.80;;;;;;;2.90;100.00;148394.02;1805448;77;21024;-61
2022/02/21 02:32:17;;;;;;;21.52;10.45;;;;;;;2.83;100.00;148378.55;1799243;77;21958;-58
2022/02/21 02:34:45;;;;;;;22.13;10.82;;;;;;;2.81;100.00;148373.41;1798837;78;20997;-59
2022/02/21 02:37:12;;;;;;;22.37;10.95;;;;;;;2.75;100.00;148357.88;1800031;77;21038;-61
2022/02/21 02:39:39;;;;;;;18.92;10.43;;;;;;;2.74;100.00;148355.31;1803500;78;21537;-60
2022/02/21 02:42:08;;;;;;;18.77;11.18;;;;;;;2.71;100.00;148347.56;1801305;78;21064;-59
2022/02/21 02:44:34;;;;;;;21.42;11.18;;;;;;;2.70;100.00;148345.00;1803366;77;21103;-60
2022/02/21 02:47:06;;;;;;;22.42;11.40;;;;;;;2.66;100.00;148334.69;1805617;78;21005;-60
2022/02/21 02:49:34;;;;;;;26.07;11.40;;;;;;;2.63;100.00;148326.95;1805906;77;21422;-59
2022/02/21 02:52:01;;;;;;;21.25;9.98;;;;;;;2.60;100.00;148319.22;1801550;78;21118;-61
2022/02/21 02:54:28;;;;;;;14.80;8.20;;;;;;;2.58;100.00;148315.33;1807730;77;21439;-60
2022/02/21 02:56:55;;;;;;;14.07;7.90;;;;;;;2.49;100.00;148293.41;1801826;77;21134;-60
2022/02/21 02:59:25;;;;;;;15.32;8.08;;;;;;;2.41;100.00;148272.78;1803717;78;22496;-60
2022/02/21 03:01:54;;;;;;;14.20;7.67;;;;;;;2.32;100.00;148250.86;1775006;78;21148;-61
2022/02/21 03:04:21;;;;;;;16.70;8.30;;;;;;;2.26;100.00;148235.41;1805304;77;21104;-61
2022/02/21 03:06:48;;;;;;;16.60;7.55;;;;;;;2.20;100.00;148221.20;1807789;78;21043;-60
2022/02/21 03:09:16;;;;;;;16.82;9.05;;;;;;;2.12;100.00;148201.86;1806805;77;22155;-61
2022/02/21 03:11:42;;;;;;;20.52;8.58;;;;;;;2.08;100.00;148190.25;1799245;78;21520;-61
2022/02/21 03:14:10;;;;;;;14.58;7.62;;;;;;;1.99;100.00;148169.64;1808390;78;21153;-60
2022/02/21 03:16:39;;;;;;;14.65;8.13;;;;;;;1.89;100.00;148143.88;1803582;77;20948;-59
2022/02/21 03:19:06;;;;;;;14.13;7.85;;;;;;;1.85;100.00;148133.53;1803090;77;21062;-58
2022/02/21 03:21:33;;;;;;;13.25;7.70;;;;;;;1.78;100.00;148115.50;1802689;77;21067;-59
2022/02/21 03:24:00;;;;;;;16.37;8.78;;;;;;;1.72;100.00;148101.31;1802670;77;21170;-60
2022/02/21 03:26:27;;;;;;;15.05;8.85;;;;;;;1.70;100.00;148097.47;1805587;78;21032;-59
2022/02/21 03:28:54;;;;;;;14.13;7.72;;;;;;;1.68;100.00;148092.31;1803216;77;21525;-58
2022/02/21 03:31:20;;;;;;;14.28;8.10;;;;;;;1.71;100.00;148098.73;1802072;78;21416;-59
2022/02/21 03:33:47;;;;;;;11.45;8.10;;;;;;;1.73;100.00;148102.63;1804756;77;21616;-60
2022/02/21 03:36:14;;;;;;;13.43;7.92;;;;;;;1.73;100.00;148102.63;1808016;77;21078;-60
2022/02/21 03:38:43;;;;;;;12.47;7.47;;;;;;;1.70;100.00;148097.47;1810746;77;21056;-58
2022/02/21 03:41:10;;;;;;;13.62;7.58;;;;;;;1.70;100.00;148097.47;1803310;77;21052;-59
2022/02/21 03:43:37;;;;;;;14.13;8.08;;;;;;;1.65;100.00;148084.55;1797801;78;21019;-59
2022/02/21 03:46:05;;;;;;;11.65;7.22;;;;;;;1.63;100.00;148079.39;1815927;77;21508;-60
2022/02/21 03:48:31;;;;;;;13.98;7.55;;;;;;;1.59;100.00;148069.09;1806643;78;21027;-59
2022/02/21 03:50:58;;;;;;;12.98;8.20;;;;;;;1.52;100.00;148051.06;1805572;78;21517;-62
2022/02/21 03:53:25;;;;;;;12.93;7.70;;;;;;;1.42;100.00;148027.84;1801961;78;20956;-58
2022/02/21 03:55:51;;;;;;;12.07;7.87;;;;;;;1.34;100.00;148005.98;1804043;77;21078;-60
2022/02/21 03:58:18;;;;;;;10.70;6.97;;;;;;;1.28;100.00;147993.06;1783640;78;21766;-60
2022/02/21 04:00:45;;;;;;;12.80;7.85;;;;;;;1.22;100.00;147976.36;1807538;78;21031;-61
2022/02/21 04:03:12;;;;;;;13.28;8.25;;;;;;;1.13;100.00;147955.72;1808358;77;21521;-62
2022/02/21 04:05:39;;;;;;;16.40;8.30;;;;;;;1.13;100.00;147955.72;1804644;77;21334;-61
2022/02/21 04:08:06;;;;;;;15.15;8.43;;;;;;;1.17;100.00;147963.44;1809065;78;21020;-60
2022/02/21 04:10:33;;;;;;;14.38;8.93;;;;;;;1.19;100.00;147968.59;1816276;78;21136;-61
2022/02/21 04:13:01;;;;;;;15.03;8.33;;;;;;;1.22;100.00;147976.36;1795232;78;21028;-61
2022/02/21 04:15:28;;;;;;;14.15;8.70;;;;;;;1.23;100.00;147980.19;1775538;79;21359;-59
2022/02/21 04:17:55;;;;;;;14.10;8.73;;;;;;;1.22;100.00;147976.36;1784802;78;22191;-60
2022/02/21 04:20:23;;;;;;;11.60;7.33;;;;;;;1.16;100.00;147960.86;1793154;78;21008;-60
2022/02/21 04:22:50;;;;;;;16.85;8.35;;;;;;;1.08;100.00;147941.53;1789347;79;21810;-58
2022/02/21 04:25:17;;;;;;;15.95;8.35;;;;;;;1.06;100.00;147937.69;1792023;78;21115;-58
2022/02/21 04:27:47;;;;;;;11.45;7.10;;;;;;;1.00;100.00;147922.25;1790917;78;21107;-59
2022/02/21 04:30:17;;;;;;;16.97;9.05;;;;;;;0.91;100.00;147900.34;1794912;79;21005;-61
2022/02/21 04:32:46;;;;;;;13.15;8.40;;;;;;;0.89;100.00;147895.20;1786459;78;21251;-61
2022/02/21 04:35:13;;;;;;;14.38;7.87;;;;;;;0.96;100.00;147911.91;1788542;79;21620;-60
2022/02/21 04:37:40;;;;;;;15.10;8.50;;;;;;;1.06;100.00;147936.37;1770298;78;21042;-62
2022/02/21 04:40:10;;;;;;;15.05;8.70;;;;;;;1.08;100.00;147942.84;1806735;78;21056;-60
2022/02/21 04:42:37;;;;;;;15.03;8.23;;;;;;;1.08;100.00;147942.84;1736158;81;21390;-60
2022/02/21 04:45:05;;;;;;;13.60;7.85;;;;;;;1.07;100.00;147938.95;1730077;81;21096;-60
2022/02/21 04:47:32;;;;;;;12.80;8.10;;;;;;;1.05;100.00;147933.81;1726907;81;21159;-60
2022/02/21 04:49:59;;;;;;;13.48;8.18;;;;;;;1.03;100.00;147928.66;1732063;80;21526;-61
2022/02/21 04:52:26;;;;;;;15.08;9.18;;;;;;;1.04;100.00;147932.55;1742022;81;21092;-59
2022/02/21 04:54:54;;;;;;;15.88;8.73;;;;;;;1.02;100.00;147927.41;1742057;81;21071;-60
2022/02/21 04:57:21;;;;;;;14.75;8.53;;;;;;;1.03;100.00;147929.97;1794823;79;21033;-62
2022/02/21 04:59:48;;;;;;;23.77;9.88;;;;;;;1.10;100.00;147947.98;1788495;78;21129;-59
2022/02/21 05:02:15;;;;;;;17.12;9.93;;;;;;;1.11;100.00;147950.56;1792873;79;21141;-61
2022/02/21 05:04:42;;;;;;;17.77;9.53;;;;;;;1.16;100.00;147962.17;1788061;79;21357;-62
2022/02/21 05:07:09;;;;;;;14.50;8.90;;;;;;;1.29;100.00;147994.38;1797539;78;21070;-62
2022/02/21 05:09:36;;;;;;;18.00;9.95;;;;;;;1.39;100.00;148020.13;1786810;78;21052;-61
2022/02/21 05:12:03;;;;;;;18.48;10.58;;;;;;;1.50;100.00;148045.91;1781872;78;21857;-61
2022/02/21 05:14:31;;;;;;;17.27;9.95;;;;;;;1.63;100.00;147854.47;1777036;78;21471;-60
2022/02/21 05:16:58;;;;;;;18.98;11.03;;;;;;;1.74;100.00;148105.19;1776178;78;21028;-60
2022/02/21 05:19:26;;;;;;;18.37;11.38;;;;;;;1.90;100.00;148141.12;1752443;78;21047;-59
2022/02/21 05:21:54;;;;;;;17.85;9.85;;;;;;;2.20;100.00;140166.33;1772188;78;21088;-60
2022/02/21 05:24:21;;;;;;;18.25;10.08;;;;;;;2.40;100.00;145106.55;1779549;78;21803;-60
2022/02/21 05:26:48;;;;;;;19.73;9.88;;;;;;;2.56;100.00;148311.48;1775456;78;21047;-61
2022/02/21 05:29:15;;;;;;;12.63;8.38;;;;;;;2.80;100.00;148370.81;1769156;78;21060;-61
2022/02/21 05:31:42;;;;;;;12.05;7.87;;;;;;;2.91;100.00;148396.59;1778303;78;21040;-62
2022/02/21 05:34:08;;;;;;;12.30;7.78;;;;;;;2.94;100.00;148404.33;1777409;78;21083;-62
2022/02/21 05:36:35;;;;;;;14.87;9.08;;;;;;;2.98;100.00;148415.95;1746604;80;21213;-60
2022/02/21 05:39:02;;;;;;;15.65;9.38;;;;;;;3.03;100.00;148426.27;1769975;78;21091;-61
2022/02/21 05:41:29;;;;;;;15.38;9.10;;;;;;;3.06;100.00;148435.31;1762882;78;20972;-58
2022/02/21 05:43:56;;;;;;;13.95;9.48;;;;;;;3.11;100.00;148446.94;1767156;78;21036;-59
2022/02/21 05:46:23;;;;;;;11.97;8.10;;;;;;;3.16;100.00;148459.83;1781761;78;21537;-59
2022/02/21 05:48:50;;;;;;;14.38;8.33;;;;;;;3.26;100.00;148484.34;1741503;78;21529;-60
2022/02/21 05:51:17;;;;;;;18.62;8.33;;;;;;;3.32;100.00;148499.81;1749720;80;21099;-60
2022/02/21 05:53:46;;;;;;;12.85;8.53;;;;;;;3.37;100.00;148511.45;1758696;78;20984;-58
2022/02/21 05:56:13;;;;;;;14.65;8.28;;;;;;;3.41;100.00;148523.03;1777928;78;21383;-59
2022/02/21 05:58:41;;;;;;;13.50;8.68;;;;;;;3.47;100.00;148535.97;1781003;78;20945;-59
2022/02/21 06:01:08;;;;;;;17.48;9.08;;;;;;;3.52;100.00;148548.87;1779151;78;22253;-59
2022/02/21 06:03:34;;;;;;;14.78;8.78;;;;;;;3.56;100.00;148559.19;1776932;78;21855;-60
2022/02/21 06:06:01;;;;;;;14.95;9.40;;;;;;;3.64;100.00;148579.81;1774159;78;21216;-60
2022/02/21 06:08:29;;;;;;;16.55;8.98;;;;;;;3.79;100.00;148615.98;1738709;79;21063;-61
2022/02/21 06:10:57;;;;;;;14.53;9.53;;;;;;;3.92;100.00;148648.25;1772012;78;20979;-59
2022/02/21 06:13:25;;;;;;;14.45;8.75;;;;;;;4.05;100.00;148680.53;1792820;78;20979;-63
2022/02/21 06:15:52;;;;;;;17.87;9.55;;;;;;;4.05;100.00;148680.53;1807708;78;21477;-61
2022/02/21 06:18:20;;;;;;;17.57;9.78;;;;;;;4.11;100.00;148696.06;1803105;77;21114;-61
2022/02/21 06:20:47;;;;;;;15.63;9.93;;;;;;;4.22;100.00;148723.17;1804101;78;20973;-60
2022/02/21 06:23:15;;;;;;;19.25;10.63;;;;;;;4.31;100.00;148746.41;1803850;77;21071;-61
2022/02/21 06:25:43;;;;;;;19.15;10.43;;;;;;;4.41;100.00;148770.94;1800196;78;23303;-61
2022/02/21 06:28:11;;;;;;;18.27;10.75;;;;;;;4.54;100.00;148804.55;1802345;77;21033;-61
2022/02/21 06:30:38;;;;;;;20.77;11.08;;;;;;;4.54;100.00;148804.55;1802000;77;21362;-60
2022/02/21 06:33:05;;;;;;;19.62;11.35;;;;;;;4.68;100.00;148839.42;1798777;77;21079;-60
2022/02/21 06:35:32;;;;;;;22.13;11.53;;;;;;;4.94;100.00;148902.69;1745515;80;21006;-61
2022/02/21 06:37:59;;;;;;;16.62;11.00;;;;;;;4.94;100.00;148902.69;1742195;80;21962;-61
2022/02/21 06:40:28;;;;;;;18.17;10.75;;;;;;;5.03;100.00;148925.98;1768344;80;21562;-61
2022/02/21 06:42:55;;;;;;;21.33;13.65;;;;;;;5.11;100.00;148946.64;1767854;79;22492;-60
2022/02/21 06:45:24;;;;;;;24.65;15.35;;;;;;;5.19;100.00;148964.72;1765668;79;21104;-61
2022/02/21 06:47:51;;;;;;;40.35;21.33;;;;;;;5.30;100.00;148994.50;1763410;79;21611;-62
2022/02/21 06:50:18;;;;;;;42.85;22.60;;;;;;;5.37;100.00;149011.25;1741550;80;21561;-61
2022/02/21 06:52:45;;;;;;;36.35;19.30;;;;;;;5.48;100.00;149038.41;1766476;79;21032;-59
2022/02/21 06:55:13;;;;;;;33.15;17.23;;;;;;;5.62;100.00;149072.03;1804858;77;21090;-60
2022/02/21 06:57:42;;;;;;;26.95;15.25;;;;;;;5.78;100.00;149112.11;1807748;77;21563;-62
2022/02/21 07:00:11;;;;;;;26.05;13.45;;;;;;;5.91;100.00;149144.42;1807370;77;22352;-60
2022/02/21 07:02:38;;;;;;;34.50;12.80;;;;;;;6.02;100.00;149174.22;1797052;77;21771;-60
2022/02/21 07:05:06;;;;;;;24.70;11.03;;;;;;;6.17;100.00;149210.44;1801880;78;21800;-61
2022/02/21 07:07:34;;;;;;;31.20;11.75;;;;;;;6.28;100.00;149237.61;1804512;77;21043;-61
2022/02/21 07:10:03;;;;;;;24.87;9.43;;;;;;;6.38;100.00;149262.19;1802110;78;21016;-61
2022/02/21 07:12:31;;;;;;;20.40;8.88;;;;;;;6.54;99.91;149303.59;1806018;77;21064;-60
2022/02/21 07:14:58;;;;;;;16.37;9.55;;;;;;;6.71;99.22;149344.97;1801572;77;21138;-58
2022/02/21 07:17:28;;;;;;;16.15;8.35;;;;;;;6.88;98.56;149387.70;1801533;77;21073;-59
2022/02/21 07:19:56;;;;;;;14.75;7.17;;;;;;;7.04;97.23;149427.81;1801094;77;21087;-61
2022/02/21 07:22:24;;;;;;;15.03;7.20;;;;;;;7.21;95.90;149469.25;1776399;78;21091;-60
2022/02/21 07:24:51;;;;;;;13.00;6.40;;;;;;;7.33;94.47;149500.28;1799240;77;21352;-61
2022/02/21 07:27:18;;;;;;;16.35;7.17;;;;;;;7.45;93.43;149531.38;1798286;78;21126;-62
2022/02/21 07:29:44;;;;;;;14.80;7.05;;;;;;;7.59;92.37;149565.00;1802810;78;21059;-62
2022/02/21 07:32:15;;;;;;;15.28;8.40;;;;;;;7.70;91.25;149592.20;1803667;77;21081;-59
2022/02/21 07:34:42;;;;;;;14.98;7.50;;;;;;;7.84;90.18;149627.16;1799584;77;21628;-60
2022/02/21 07:37:12;;;;;;;16.82;7.40;;;;;;;7.95;89.04;149655.67;1798849;78;21043;-62
2022/02/21 07:39:39;;;;;;;13.65;7.15;;;;;;;8.06;87.94;149681.55;1802481;77;21153;-61
2022/02/21 07:42:07;;;;;;;14.00;6.87;;;;;;;8.13;86.39;149699.72;1803142;77;21310;-59
2022/02/21 07:44:35;;;;;;;12.88;6.40;;;;;;;8.18;85.22;149712.66;1800622;77;21062;-61
2022/02/21 07:47:02;;;;;;;16.15;6.45;;;;;;;8.22;84.06;149721.75;1798728;77;21571;-62
2022/02/21 07:49:30;;;;;;;16.12;7.22;;;;;;;8.27;83.05;149734.69;1800671;78;21653;-60
2022/02/21 07:51:59;;;;;;;14.00;6.70;;;;;;;8.31;81.90;149746.38;1801910;77;21240;-58
2022/02/21 07:54:26;;;;;;;13.43;6.40;;;;;;;8.38;80.80;149761.89;1805509;78;21132;-61
2022/02/21 07:56:53;;;;;;;13.93;6.53;;;;;;;8.43;79.67;149774.84;1804936;78;21601;-60
2022/02/21 07:59:21;;;;;;;9.35;5.78;;;;;;;8.49;78.88;149790.38;1804089;78;21041;-61
2022/02/21 08:01:48;;;;;;;10.35;5.87;;;;;;;8.55;78.23;149806.00;1806824;77;21529;-59
2022/02/21 08:04:15;;;;;;;11.70;6.03;;;;;;;8.64;77.60;149828.05;1807954;78;22065;-59
2022/02/21 08:06:43;;;;;;;13.25;6.80;;;;;;;8.71;76.66;149844.84;1801569;77;21123;-59
2022/02/21 08:09:10;;;;;;;11.85;6.03;;;;;;;8.79;75.86;149865.61;1803811;77;21613;-60
2022/02/21 08:11:37;;;;;;;8.45;5.87;;;;;;;8.88;75.17;149887.66;1799468;78;21075;-59
2022/02/21 08:14:05;;;;;;;15.95;5.83;;;;;;;8.96;74.51;149908.38;1793135;78;21106;-59
2022/02/21 08:16:33;;;;;;;11.38;5.90;;;;;;;9.02;73.46;149923.91;1787035;79;22591;-61
2022/02/21 08:19:04;;;;;;;11.28;5.92;;;;;;;9.11;72.80;149944.69;1787908;78;21872;-60
2022/02/21 08:21:33;;;;;;;11.25;5.37;;;;;;;9.19;72.18;149964.12;1771170;79;21111;-60
2022/02/21 08:24:12;;;;;;;8.88;5.05;;;;;;;9.26;71.45;149983.53;1767182;79;21099;-62
2022/02/21 08:26:39;;;;;;;10.55;5.17;;;;;;;9.32;70.61;149997.81;1786944;78;21049;-59
2022/02/21 08:29:07;;;;;;;13.85;5.45;;;;;;;9.35;70.25;150005.58;1788383;79;22487;-61
2022/02/21 08:31:40;;;;;;;8.93;5.12;;;;;;;9.40;69.69;150018.58;1788007;78;21083;-60
2022/02/21 08:34:08;;;;;;;11.67;5.20;;;;;;;9.43;69.30;150026.36;1790895;78;21138;-59
2022/02/21 08:36:51;;;;;;;11.03;5.45;;;;;;;9.48;68.78;150036.72;1780440;79;21557;-60
2022/02/21 08:39:08;;;;;;;8.68;4.92;;;;;;;9.53;68.24;150049.67;1780284;78;21679;-62
2022/02/21 08:41:35;;;;;;;11.20;5.00;;;;;;;9.56;67.77;150057.45;1789408;78;21434;-61
2022/02/21 08:44:02;;;;;;;9.28;4.58;;;;;;;9.62;67.12;150071.72;1788262;78;21147;-59
2022/02/21 08:46:34;;;;;;;10.50;5.20;;;;;;;9.64;66.71;150078.22;1789049;78;21093;-62
2022/02/21 08:49:05;;;;;;;8.20;4.42;;;;;;;9.67;66.15;150086.00;1786908;78;21036;-61
2022/02/21 08:51:33;;;;;;;9.98;4.70;;;;;;;9.70;65.89;150092.45;1789775;78;21103;-61
2022/02/21 08:53:59;;;;;;;10.28;4.72;;;;;;;9.76;65.41;150108.06;1790653;79;21071;-63
2022/02/21 08:56:29;;;;;;;9.45;4.58;;;;;;;9.83;65.06;150124.87;1786545;78;21040;-63
2022/02/21 08:58:56;;;;;;;12.33;4.90;;;;;;;9.91;64.43;150144.34;1788947;78;21787;-60
2022/02/21 09:01:22;;;;;;;7.92;4.65;;;;;;;9.97;64.11;150161.20;1784604;78;21800;-59
2022/02/21 09:03:49;;;;;;;8.70;4.92;;;;;;;10.03;63.83;150176.75;1788072;77;21544;-59
2022/02/21 09:06:16;;;;;;;13.53;4.47;;;;;;;10.10;63.51;150192.36;1785959;78;21133;-59
2022/02/21 09:08:43;;;;;;;7.20;4.55;;;;;;;10.13;63.09;150200.13;1786881;78;21643;-59
2022/02/21 09:11:10;;;;;;;10.05;4.75;;;;;;;10.15;62.36;150205.31;1789382;78;21107;-60
2022/02/21 09:13:37;;;;;;;13.35;5.70;;;;;;;10.17;62.03;150210.50;1789498;78;21063;-60
2022/02/21 09:16:05;;;;;;;10.72;5.17;;;;;;;10.22;61.97;150222.19;1784281;77;21068;-60
2022/02/21 09:18:34;;;;;;;7.90;4.75;;;;;;;10.25;61.64;150231.25;1781669;78;21032;-62
2022/02/21 09:21:02;;;;;;;8.55;4.72;;;;;;;10.27;61.52;150236.44;1726664;81;21096;-60
2022/02/21 09:23:28;;;;;;;10.40;4.58;;;;;;;10.30;61.38;150244.25;1749172;79;21049;-59
2022/02/21 09:25:56;;;;;;;10.13;4.92;;;;;;;10.35;61.29;150254.63;1757116;80;21075;-62
2022/02/21 09:28:22;;;;;;;10.15;4.70;;;;;;;10.38;61.23;150262.41;1720056;80;21041;-63
2022/02/21 09:30:53;;;;;;;9.30;4.28;;;;;;;10.44;60.93;150278.02;1737496;80;21601;-61
2022/02/21 09:33:17;;;;;;;7.10;4.45;;;;;;;10.42;60.57;150272.83;1732676;80;21622;-61
2022/02/21 09:35:44;;;;;;;7.85;4.55;;;;;;;10.43;60.55;150276.73;1733355;80;21022;-60
2022/02/21 09:38:13;;;;;;;7.67;4.42;;;;;;;10.46;60.45;150283.19;1729478;81;22377;-63
2022/02/21 09:40:41;;;;;;;9.25;5.42;;;;;;;10.48;60.06;150288.38;1731552;80;21049;-62
2022/02/21 09:43:09;;;;;;;13.45;5.45;;;;;;;10.48;59.77;150287.11;1733194;80;21798;-60
2022/02/21 09:45:35;;;;;;;8.23;4.72;;;;;;;10.49;59.98;150290.97;1731648;80;21064;-60
2022/02/21 09:48:03;;;;;;;9.30;4.60;;;;;;;10.51;60.15;150296.20;1734167;80;21071;-61
2022/02/21 09:50:29;;;;;;;11.68;4.08;;;;;;;10.56;60.20;150309.17;1733315;80;20980;-61
2022/02/21 09:53:02;;;;;;;11.00;4.58;;;;;;;10.62;60.26;150322.14;1735895;80;21554;-63
2022/02/21 09:55:25;;;;;;;8.90;4.30;;;;;;;10.67;60.26;150335.09;1750364;79;22298;-62
2022/02/21 09:57:52;;;;;;;8.38;4.65;;;;;;;10.70;59.99;150342.88;1732755;81;21083;-61
2022/02/21 10:00:18;;;;;;;12.80;5.80;;;;;;;10.73;60.07;150350.72;1740931;80;21106;-59
2022/02/21 10:02:47;;;;;;;11.80;6.53;;;;;;;10.71;60.71;150346.80;1739909;80;21107;-60
2022/02/21 10:05:21;;;;;;;11.60;6.30;;;;;;;10.60;61.70;150319.55;1743060;79;20976;-59
2022/02/21 10:07:48;;;;;;;9.15;6.10;;;;;;;10.42;62.67;150272.83;1739963;80;21483;-59
2022/02/21 10:10:19;;;;;;;12.25;6.47;;;;;;;10.21;63.80;150220.88;1747371;80;21133;-60
2022/02/21 10:12:54;;;;;;;11.90;6.12;;;;;;;10.01;64.84;150170.31;1718265;80;21084;-61
2022/02/21 10:15:24;;;;;;;8.15;6.12;;;;;;;9.79;65.86;150115.83;1742813;80;21104;-61
2022/02/21 10:17:54;;;;;;;11.00;5.75;;;;;;;9.62;66.75;150073.05;1745742;80;21518;-59
2022/02/21 10:20:31;;;;;;;9.65;6.50;;;;;;;9.51;67.59;150044.48;1707142;81;21140;-60
2022/02/21 10:23:05;;;;;;;14.95;6.42;;;;;;;9.43;68.28;150026.36;1663173;81;21428;-60
2022/02/21 10:25:32;;;;;;;10.00;6.50;;;;;;;9.34;68.80;150001.72;1763950;78;21012;-62
2022/02/21 10:27:59;;;;;;;11.88;6.95;;;;;;;9.23;69.13;149974.50;1715098;81;21622;-61
2022/02/21 10:30:27;;;;;;;9.80;6.22;;;;;;;9.08;69.73;149938.19;1713141;81;21137;-60
2022/02/21 10:32:57;;;;;;;11.63;6.33;;;;;;;8.96;70.05;149907.09;1790088;78;21454;-60
2022/02/21 10:35:30;;;;;;;13.03;7.00;;;;;;;8.84;70.56;149877.23;1789919;78;21529;-60
2022/02/21 10:37:59;;;;;;;12.25;6.72;;;;;;;8.73;71.06;149850.03;1792941;78;21055;-59
2022/02/21 10:40:35;;;;;;;11.88;7.45;;;;;;;8.64;71.87;149826.72;1788922;78;21652;-59
2022/02/21 10:43:14;;;;;;;10.35;7.03;;;;;;;8.51;72.76;149795.66;1766418;78;21090;-58
2022/02/21 10:45:55;;;;;;;13.03;7.10;;;;;;;8.38;73.79;149763.16;1791877;77;21119;-63
2022/02/21 10:48:36;;;;;;;14.70;7.97;;;;;;;8.31;74.43;149745.05;1790876;78;21014;-63
2022/02/21 10:51:07;;;;;;;15.78;9.15;;;;;;;8.23;75.30;149725.61;1729273;78;21003;-60
2022/02/21 10:53:44;;;;;;;16.35;9.03;;;;;;;8.12;76.23;149697.13;1786130;79;21569;-59
2022/02/21 10:56:12;;;;;;;13.22;8.38;;;;;;;8.03;77.03;149676.38;1792549;78;21024;-60
2022/02/21 10:58:39;;;;;;;13.78;8.60;;;;;;;7.91;77.70;149645.31;1788740;77;21098;-60
2022/02/21 11:01:07;;;;;;;15.63;9.40;;;;;;;7.83;78.58;149625.89;1794001;77;21079;-60
2022/02/21 11:03:34;;;;;;;15.23;10.03;;;;;;;7.78;79.37;149612.95;1793043;78;21072;-60
2022/02/21 11:06:01;;;;;;;17.60;9.68;;;;;;;7.73;80.47;149599.97;1789703;78;22200;-60
2022/02/21 11:08:31;;;;;;;15.88;10.13;;;;;;;7.66;81.16;149581.84;1789749;77;21027;-62
2022/02/21 11:11:08;;;;;;;17.02;10.70;;;;;;;7.58;81.98;149563.73;1789864;78;21580;-60
2022/02/21 11:13:35;;;;;;;20.23;10.65;;;;;;;7.51;82.74;149544.31;1786928;77;21082;-60
2022/02/21 11:16:03;;;;;;;18.45;10.53;;;;;;;7.47;83.47;149533.95;1804663;77;21470;-59
2022/02/21 11:18:30;;;;;;;21.35;11.08;;;;;;;7.42;84.10;149523.61;1808957;77;21110;-60
2022/02/21 11:20:57;;;;;;;18.50;10.90;;;;;;;7.40;84.82;149518.39;1787932;77;21094;-59
2022/02/21 11:23:25;;;;;;;19.80;11.20;;;;;;;7.40;85.63;149518.39;1799495;77;21548;-59
2022/02/21 11:26:17;;;;;;;17.98;11.15;;;;;;;7.40;86.29;149517.12;1805859;77;21045;-60